createdAt,value
2023-05-08T00:01:31.668Z,6.00
2023-05-08T00:03:59.706Z,7.00
2023-05-08T00:06:30.426Z,7.50
2023-05-08T00:08:57.860Z,7.00
2023-05-08T00:11:25.164Z,5.50
2023-05-08T00:13:52.787Z,6.75
2023-05-08T00:16:19.692Z,7.25
2023-05-08T00:18:47.478Z,7.25
2023-05-08T00:21:16.311Z,6.25
2023-05-08T00:23:43.667Z,8.25
2023-05-08T00:26:11.096Z,8.00
2023-05-08T00:28:40.075Z,6.75
2023-05-08T00:31:07.330Z,7.75
2023-05-08T00:33:34.901Z,8.50
2023-05-08T00:36:02.793Z,8.75
2023-05-08T00:38:31.828Z,7.25
2023-05-08T00:40:59.204Z,4.50
2023-05-08T00:43:28.530Z,9.00
2023-05-08T00:45:57.704Z,8.00
2023-05-08T00:48:26.309Z,4.50
2023-05-08T00:50:55.222Z,7.75
2023-05-08T00:53:23.391Z,7.50
2023-05-08T00:55:51.925Z,1.00
2023-05-08T00:58:21.321Z,7.50
2023-05-08T01:00:50.400Z,9.50
2023-05-08T01:03:18.158Z,7.75
2023-05-08T01:05:46.877Z,8.50
2023-05-08T01:08:14.274Z,9.25
2023-05-08T01:11:22.277Z,9.00
2023-05-08T01:14:07.948Z,9.00
2023-05-08T01:16:44.679Z,10.25
2023-05-08T01:19:24.109Z,10.50
2023-05-08T01:22:24.549Z,8.00
2023-05-08T01:25:19.698Z,10.50
2023-05-08T01:27:57.036Z,11.00
2023-05-08T01:30:42.721Z,9.25
2023-05-08T01:33:36.305Z,9.75
2023-05-08T01:36:17.708Z,9.75
2023-05-08T01:38:51.167Z,10.00
2023-05-08T01:41:28.501Z,12.00
2023-05-08T01:44:09.069Z,7.25
2023-05-08T01:46:37.040Z,10.00
2023-05-08T01:49:08.823Z,8.25
2023-05-08T01:51:49.151Z,4.75
2023-05-08T01:54:20.854Z,9.00
2023-05-08T01:56:49.487Z,9.25
2023-05-08T01:59:20.834Z,11.25
2023-05-08T02:01:50.119Z,14.50
2023-05-08T02:04:17.771Z,7.75
2023-05-08T02:06:45.632Z,11.00
2023-05-08T02:09:13.298Z,10.00
2023-05-08T02:11:43.134Z,17.00
2023-05-08T02:14:12.887Z,7.50
2023-05-08T02:16:41.227Z,9.75
2023-05-08T02:19:09.047Z,12.25
2023-05-08T02:21:37.673Z,9.75
2023-05-08T02:24:05.282Z,11.00
2023-05-08T02:26:35.171Z,9.25
2023-05-08T02:29:04.001Z,7.00
2023-05-08T02:31:31.892Z,6.75
2023-05-08T02:34:00.133Z,7.00
2023-05-08T02:36:31.462Z,7.00
2023-05-08T02:38:59.552Z,8.75
2023-05-08T02:41:30.995Z,9.75
2023-05-08T02:43:58.552Z,9.00
2023-05-08T02:46:32.680Z,8.75
2023-05-08T02:49:01.184Z,8.50
2023-05-08T02:51:55.930Z,8.50
2023-05-08T02:54:24.908Z,6.50
2023-05-08T02:57:31.407Z,7.50
2023-05-08T03:00:10.116Z,8.25
2023-05-08T03:03:13.903Z,9.00
2023-05-08T03:05:46.743Z,9.75
2023-05-08T03:08:22.093Z,6.00
2023-05-08T03:10:51.385Z,7.50
2023-05-08T03:13:19.828Z,10.00
2023-05-08T03:15:51.867Z,8.50
2023-05-08T03:18:21.660Z,6.25
2023-05-08T03:20:51.613Z,6.50
2023-05-08T03:23:21.897Z,8.00
2023-05-08T03:25:49.386Z,8.25
2023-05-08T03:28:18.100Z,7.50
2023-05-08T03:30:45.672Z,7.00
2023-05-08T03:33:14.213Z,7.75
2023-05-08T03:35:41.974Z,7.25
2023-05-08T03:38:09.945Z,2.75
2023-05-08T03:40:38.878Z,9.75
2023-05-08T03:43:08.234Z,6.75
2023-05-08T03:45:41.722Z,7.75
2023-05-08T03:48:10.837Z,7.00
2023-05-08T03:50:39.353Z,10.00
2023-05-08T03:53:06.823Z,8.00
2023-05-08T03:55:34.220Z,8.00
2023-05-08T03:58:17.515Z,7.00
2023-05-08T04:00:59.658Z,8.00
2023-05-08T04:04:04.384Z,6.75
2023-05-08T04:06:51.345Z,4.00
2023-05-08T04:10:02.480Z,7.50
2023-05-08T04:12:39.045Z,7.25
2023-05-08T04:15:21.140Z,6.50
2023-05-08T04:17:59.940Z,6.50
2023-05-08T04:20:28.446Z,7.00
2023-05-08T04:22:59.638Z,6.00
2023-05-08T04:25:27.403Z,7.75
2023-05-08T04:27:56.334Z,6.50
2023-05-08T04:30:24.371Z,7.00
2023-05-08T04:32:51.934Z,10.00
2023-05-08T04:35:19.702Z,11.75
2023-05-08T04:37:48.188Z,8.25
2023-05-08T04:40:15.756Z,8.25
2023-05-08T04:42:43.792Z,8.25
2023-05-08T04:45:11.956Z,9.75
2023-05-08T04:47:39.858Z,6.00
2023-05-08T04:50:07.501Z,9.25
2023-05-08T04:52:34.766Z,8.50
2023-05-08T04:55:02.200Z,7.75
2023-05-08T04:57:29.316Z,7.75
2023-05-08T04:59:57.040Z,7.00
2023-05-08T05:02:26.385Z,9.75
2023-05-08T05:04:53.755Z,12.25
2023-05-08T05:07:20.972Z,9.00
2023-05-08T05:09:48.513Z,10.00
2023-05-08T05:12:20.394Z,12.00
2023-05-08T05:14:48.233Z,11.25
2023-05-08T05:17:15.728Z,12.00
2023-05-08T05:19:43.348Z,8.75
2023-05-08T05:22:10.598Z,12.25
2023-05-08T05:24:39.850Z,11.25
2023-05-08T05:27:06.916Z,7.25
2023-05-08T05:29:34.909Z,7.25
2023-05-08T05:32:02.535Z,8.25
2023-05-08T05:34:30.420Z,9.25
2023-05-08T05:36:57.876Z,8.50
2023-05-08T05:39:25.443Z,13.25
2023-05-08T05:41:52.468Z,8.50
2023-05-08T05:44:20.151Z,10.50
2023-05-08T05:46:47.969Z,11.75
2023-05-08T05:49:15.449Z,8.00
2023-05-08T05:51:42.809Z,10.00
2023-05-08T05:54:10.214Z,6.50
2023-05-08T05:56:37.645Z,8.50
2023-05-08T05:59:05.373Z,10.25
2023-05-08T06:01:32.391Z,10.75
2023-05-08T06:03:59.821Z,9.50
2023-05-08T06:06:27.143Z,9.50
2023-05-08T06:08:54.439Z,10.00
2023-05-08T06:11:22.776Z,10.50
2023-05-08T06:13:50.724Z,11.75
2023-05-08T06:16:19.211Z,11.25
2023-05-08T06:18:46.261Z,10.50
2023-05-08T06:21:13.686Z,8.25
2023-05-08T06:23:40.764Z,12.00
2023-05-08T06:26:08.259Z,12.00
2023-05-08T06:28:35.600Z,9.00
2023-05-08T06:31:03.167Z,8.75
2023-05-08T06:33:30.600Z,11.00
2023-05-08T06:36:01.128Z,7.50
2023-05-08T06:38:28.078Z,5.75
2023-05-08T06:40:55.620Z,3.00
2023-05-08T06:43:22.827Z,4.00
2023-05-08T06:45:50.141Z,4.00
2023-05-08T06:48:17.404Z,8.50
2023-05-08T06:50:45.326Z,6.00
2023-05-08T06:53:12.262Z,8.25
2023-05-08T06:55:42.854Z,9.00
2023-05-08T06:58:10.224Z,8.00
2023-05-08T07:00:37.686Z,9.33
2023-05-08T07:03:04.918Z,5.00
2023-05-08T07:05:32.801Z,6.00
2023-05-08T07:07:59.830Z,8.33
2023-05-08T07:10:27.262Z,8.67
2023-05-08T07:12:54.806Z,8.00
2023-05-08T07:15:26.366Z,10.33
2023-05-08T07:17:54.140Z,7.67
2023-05-08T07:20:22.024Z,7.00
2023-05-08T07:22:49.250Z,9.00
2023-05-08T07:25:17.123Z,6.00
2023-05-08T07:27:44.854Z,8.00
2023-05-08T07:30:38.926Z,5.33
2023-05-08T07:33:06.266Z,6.00
2023-05-08T07:35:33.863Z,6.67
2023-05-08T07:38:01.165Z,5.00
2023-05-08T07:40:28.791Z,7.33
2023-05-08T07:42:55.811Z,9.00
2023-05-08T07:45:23.188Z,12.50
2023-05-08T07:47:55.655Z,11.00
2023-05-08T07:50:24.995Z,7.33
2023-05-08T07:52:53.120Z,8.33
2023-05-08T07:55:20.667Z,7.33
2023-05-08T07:57:47.899Z,9.00
2023-05-08T08:00:16.390Z,5.00
2023-05-08T08:02:44.449Z,6.33
2023-05-08T08:05:12.729Z,5.00
2023-05-08T08:07:40.490Z,3.00
2023-05-08T08:10:08.860Z,4.00
2023-05-08T08:12:36.257Z,5.67
2023-05-08T08:15:04.129Z,2.00
2023-05-08T08:17:31.380Z,4.00
2023-05-08T08:19:58.825Z,3.33
2023-05-08T08:22:26.742Z,3.67
2023-05-08T08:24:57.035Z,3.67
2023-05-08T08:27:24.281Z,4.33
2023-05-08T08:29:58.524Z,7.67
2023-05-08T08:32:32.128Z,3.67
2023-05-08T08:34:59.774Z,2.00
2023-05-08T08:37:26.902Z,6.00
2023-05-08T08:39:54.611Z,3.00
2023-05-08T08:42:23.600Z,5.00
2023-05-08T08:44:51.474Z,5.33
2023-05-08T08:47:19.829Z,4.67
2023-05-08T08:49:49.778Z,6.00
2023-05-08T08:52:23.072Z,3.67
2023-05-08T08:54:51.102Z,6.33
2023-05-08T08:57:19.949Z,3.33
2023-05-08T08:59:48.264Z,6.00
2023-05-08T09:02:18.112Z,8.33
2023-05-08T09:04:45.872Z,4.67
2023-05-08T09:07:12.956Z,6.00
2023-05-08T09:09:42.001Z,6.33
2023-05-08T09:12:09.626Z,4.67
2023-05-08T09:14:37.270Z,4.00
2023-05-08T09:17:04.510Z,3.00
2023-05-08T09:19:32.165Z,4.00
2023-05-08T09:22:01.283Z,7.33
2023-05-08T09:24:59.977Z,5.00
2023-05-08T09:27:29.092Z,5.00
2023-05-08T09:30:05.085Z,5.67
2023-05-08T09:32:33.652Z,3.33
2023-05-08T09:35:02.101Z,7.67
2023-05-08T09:37:32.178Z,10.33
2023-05-08T09:40:19.071Z,6.00
2023-05-08T09:42:47.333Z,6.00
2023-05-08T09:45:44.396Z,5.00
2023-05-08T09:48:11.652Z,6.00
2023-05-08T09:50:40.093Z,6.00
2023-05-08T09:53:08.281Z,5.00
2023-05-08T09:56:02.136Z,6.00
2023-05-08T09:58:39.857Z,6.33
2023-05-08T10:01:08.239Z,5.00
2023-05-08T10:03:49.300Z,5.33
2023-05-08T10:06:16.885Z,6.67
2023-05-08T10:08:44.191Z,7.00
2023-05-08T10:11:22.283Z,6.00
2023-05-08T10:13:49.375Z,8.67
2023-05-08T10:16:18.767Z,7.00
2023-05-08T10:18:51.000Z,5.00
2023-05-08T10:21:18.406Z,4.00
2023-05-08T10:23:47.513Z,6.00
2023-05-08T10:26:22.157Z,5.33
2023-05-08T10:28:57.929Z,5.33
2023-05-08T10:31:26.657Z,7.33
2023-05-08T10:33:57.118Z,5.00
2023-05-08T10:36:25.090Z,5.33
2023-05-08T10:38:52.709Z,6.00
2023-05-08T10:41:21.011Z,5.00
2023-05-08T10:43:48.950Z,5.67
2023-05-08T10:46:35.105Z,7.33
2023-05-08T10:49:30.189Z,3.33
2023-05-08T10:52:08.771Z,5.67
2023-05-08T10:54:49.000Z,7.67
2023-05-08T10:57:16.786Z,6.67
2023-05-08T10:59:47.563Z,3.00
2023-05-08T11:02:15.848Z,6.67
2023-05-08T11:04:44.229Z,4.67
2023-05-08T11:07:11.695Z,6.33
2023-05-08T11:09:41.949Z,7.67
2023-05-08T11:12:20.563Z,7.67
2023-05-08T11:14:58.379Z,6.67
2023-05-08T11:17:26.542Z,5.67
2023-05-08T11:19:59.089Z,7.67
2023-05-08T11:22:31.248Z,4.00
2023-05-08T11:25:11.987Z,5.00
2023-05-08T11:27:49.120Z,6.00
2023-05-08T11:30:36.729Z,9.00
2023-05-08T11:33:04.679Z,5.00
2023-05-08T11:35:41.468Z,6.00
2023-05-08T11:38:19.045Z,6.33
2023-05-08T11:40:50.282Z,6.33
2023-05-08T11:43:47.331Z,6.00
2023-05-08T11:46:19.841Z,7.00
2023-05-08T11:48:47.837Z,7.67
2023-05-08T11:51:22.328Z,7.00
2023-05-08T11:53:49.903Z,5.33
2023-05-08T11:56:17.034Z,7.00
2023-05-08T11:58:44.957Z,7.00
2023-05-08T12:01:19.913Z,4.67
2023-05-08T12:03:47.542Z,7.00
2023-05-08T12:06:18.343Z,6.00
2023-05-08T12:08:45.721Z,6.00
2023-05-08T12:11:13.552Z,5.00
2023-05-08T12:13:41.140Z,6.00
2023-05-08T12:16:08.383Z,6.00
2023-05-08T12:18:36.959Z,8.00
2023-05-08T12:21:05.314Z,5.00
2023-05-08T12:23:33.556Z,5.00
2023-05-08T12:26:01.461Z,5.33
2023-05-08T12:28:32.432Z,6.33
2023-05-08T12:30:59.683Z,5.33
2023-05-08T12:33:28.854Z,6.00
2023-05-08T12:35:56.417Z,7.33
2023-05-08T12:38:27.550Z,7.00
2023-05-08T12:40:57.417Z,5.67
2023-05-08T12:43:32.544Z,7.00
2023-05-08T12:46:00.048Z,5.67
2023-05-08T12:48:31.810Z,7.00
2023-05-08T12:51:04.129Z,5.67
2023-05-08T12:53:33.885Z,6.00
2023-05-08T12:56:03.699Z,6.67
2023-05-08T12:58:33.634Z,4.67
2023-05-08T13:01:13.359Z,5.67
2023-05-08T13:03:42.038Z,5.33
2023-05-08T13:06:21.137Z,6.00
2023-05-08T13:08:55.256Z,6.67
2023-05-08T13:11:31.475Z,5.33
2023-05-08T13:13:59.028Z,6.67
2023-05-08T13:16:26.506Z,6.00
2023-05-08T13:18:54.048Z,8.00
2023-05-08T13:21:21.617Z,4.67
2023-05-08T13:23:49.013Z,6.67
2023-05-08T13:26:15.981Z,5.00
2023-05-08T13:28:43.364Z,5.33
2023-05-08T13:31:10.553Z,4.33
2023-05-08T13:33:38.502Z,0.67
2023-05-08T13:36:05.727Z,7.00
2023-05-08T13:38:34.810Z,6.67
2023-05-08T13:41:02.118Z,4.00
2023-05-08T13:43:29.495Z,6.33
2023-05-08T13:45:56.826Z,4.00
2023-05-08T13:48:24.209Z,6.33
2023-05-08T13:50:51.476Z,7.00
2023-05-08T13:53:19.153Z,4.00
2023-05-08T13:55:46.588Z,6.67
2023-05-08T13:58:14.143Z,4.33
2023-05-08T14:00:41.801Z,8.33
2023-05-08T14:03:09.244Z,3.00
2023-05-08T14:05:36.942Z,5.33
2023-05-08T14:08:04.937Z,3.33
2023-05-08T14:10:32.356Z,5.33
2023-05-08T14:13:00.037Z,7.00
2023-05-08T14:15:34.756Z,8.00
2023-05-08T14:18:04.337Z,6.00
2023-05-08T14:20:32.436Z,4.67
2023-05-08T14:23:00.402Z,4.00
2023-05-08T14:25:27.914Z,3.33
2023-05-08T14:27:55.571Z,6.33
2023-05-08T14:30:22.982Z,2.67
2023-05-08T14:32:50.932Z,3.33
2023-05-08T14:35:18.044Z,4.00
2023-05-08T14:37:45.687Z,6.67
2023-05-08T14:40:13.158Z,5.67
2023-05-08T14:42:40.909Z,5.67
2023-05-08T14:45:08.624Z,3.00
2023-05-08T14:47:36.819Z,4.33
2023-05-08T14:50:04.622Z,4.33
2023-05-08T14:52:32.494Z,1.33
2023-05-08T14:55:00.813Z,3.00
2023-05-08T14:57:28.680Z,5.33
2023-05-08T14:59:56.922Z,5.67
2023-05-08T15:02:24.652Z,4.33
2023-05-08T15:04:52.372Z,5.00
2023-05-08T15:07:19.816Z,5.00
2023-05-08T15:09:48.346Z,4.67
2023-05-08T15:12:15.890Z,4.33
2023-05-08T15:14:42.907Z,5.67
2023-05-08T15:17:10.615Z,4.00
2023-05-08T15:19:37.846Z,4.00
2023-05-08T15:22:05.249Z,4.00
2023-05-08T15:24:33.094Z,4.67
2023-05-08T15:27:01.121Z,5.67
2023-05-08T15:29:28.341Z,5.67
2023-05-08T15:31:56.717Z,5.00
2023-05-08T15:34:26.474Z,3.33
2023-05-08T15:36:58.113Z,3.00
2023-05-08T15:39:31.386Z,3.67
2023-05-08T15:42:05.109Z,6.00
2023-05-08T15:44:52.613Z,3.67
2023-05-08T15:47:23.418Z,3.67
2023-05-08T15:49:51.810Z,4.00
2023-05-08T15:52:19.964Z,5.33
2023-05-08T15:54:50.601Z,4.67
2023-05-08T15:57:18.620Z,3.00
2023-05-08T15:59:45.625Z,6.33
2023-05-08T16:02:13.353Z,5.00
2023-05-08T16:04:41.267Z,3.00
2023-05-08T16:07:08.705Z,2.00
2023-05-08T16:09:36.317Z,4.00
2023-05-08T16:12:04.059Z,4.00
2023-05-08T16:14:31.404Z,5.00
2023-05-08T16:16:59.201Z,3.00
2023-05-08T16:19:26.522Z,2.00
2023-05-08T16:21:53.934Z,4.25
2023-05-08T16:24:21.282Z,4.00
2023-05-08T16:26:48.996Z,3.50
2023-05-08T16:29:16.141Z,5.75
2023-05-08T16:31:43.740Z,3.25
2023-05-08T16:34:11.361Z,7.00
2023-05-08T16:36:38.942Z,4.25
2023-05-08T16:39:06.145Z,3.50
2023-05-08T16:41:33.817Z,3.00
2023-05-08T16:44:01.004Z,4.00
2023-05-08T16:46:30.483Z,5.50
2023-05-08T16:48:58.850Z,6.25
2023-05-08T16:51:26.674Z,4.00
2023-05-08T16:53:55.510Z,6.00
2023-05-08T16:56:24.970Z,5.00
2023-05-08T16:58:52.346Z,4.25
2023-05-08T17:01:20.707Z,5.00
2023-05-08T17:03:48.455Z,6.75
2023-05-08T17:06:15.968Z,1.50
2023-05-08T17:08:43.500Z,4.25
2023-05-08T17:11:11.916Z,4.00
2023-05-08T17:13:39.203Z,3.25
2023-05-08T17:16:07.457Z,5.00
2023-05-08T17:18:35.134Z,6.00
2023-05-08T17:21:02.584Z,6.00
2023-05-08T17:23:30.263Z,6.00
2023-05-08T17:26:01.883Z,6.00
2023-05-08T17:28:29.107Z,3.75
2023-05-08T17:30:57.429Z,4.25
2023-05-08T17:33:25.508Z,5.25
2023-05-08T17:35:52.876Z,5.75
2023-05-08T17:38:20.621Z,6.25
2023-05-08T17:40:48.835Z,6.25
2023-05-08T17:43:17.000Z,8.00
2023-05-08T17:45:46.218Z,5.00
2023-05-08T17:48:14.264Z,6.00
2023-05-08T17:50:43.668Z,8.00
2023-05-08T17:53:11.291Z,5.00
2023-05-08T17:55:39.526Z,7.00
2023-05-08T17:58:07.160Z,8.33
2023-05-08T18:00:34.815Z,15.33
2023-05-08T18:03:02.777Z,9.67
2023-05-08T18:05:30.952Z,6.33
2023-05-08T18:07:58.405Z,8.67
2023-05-08T18:10:26.574Z,5.00
2023-05-08T18:12:53.818Z,6.67
2023-05-08T18:15:22.120Z,7.67
2023-05-08T18:17:50.050Z,9.67
2023-05-08T18:20:17.474Z,8.00
2023-05-08T18:22:44.704Z,6.25
2023-05-08T18:25:12.739Z,9.25
2023-05-08T18:27:41.315Z,9.75
2023-05-08T18:30:09.307Z,8.25
2023-05-08T18:32:36.982Z,9.00
2023-05-08T18:35:04.605Z,10.25
2023-05-08T18:37:31.963Z,10.50
2023-05-08T18:39:59.834Z,8.25
2023-05-08T18:42:28.146Z,8.25
2023-05-08T18:44:56.081Z,9.50
2023-05-08T18:47:23.336Z,9.00
2023-05-08T18:49:52.570Z,9.25
2023-05-08T18:52:19.736Z,7.50
2023-05-08T18:54:47.412Z,11.00
2023-05-08T18:57:15.062Z,10.00
2023-05-08T18:59:42.942Z,11.25
2023-05-08T19:02:10.948Z,14.00
2023-05-08T19:04:38.803Z,15.25
2023-05-08T19:07:06.176Z,20.75
2023-05-08T19:09:34.630Z,17.00
2023-05-08T19:12:01.928Z,15.50
2023-05-08T19:14:30.247Z,19.00
2023-05-08T19:16:58.663Z,16.50
2023-05-08T19:19:26.931Z,21.75
2023-05-08T19:21:54.753Z,21.25
2023-05-08T19:24:24.474Z,21.00
2023-05-08T19:26:51.794Z,16.25
2023-05-08T19:29:19.362Z,17.25
2023-05-08T19:31:46.870Z,21.00
2023-05-08T19:34:15.443Z,16.75
2023-05-08T19:36:43.110Z,21.75
2023-05-08T19:39:11.149Z,18.50
2023-05-08T19:41:38.714Z,20.00
2023-05-08T19:44:06.630Z,16.75
2023-05-08T19:46:34.830Z,15.75
2023-05-08T19:49:02.548Z,17.75
2023-05-08T19:51:29.809Z,17.25
2023-05-08T19:53:57.429Z,25.25
2023-05-08T19:56:25.185Z,24.00
2023-05-08T19:58:52.891Z,35.50
2023-05-08T20:01:20.756Z,33.00
2023-05-08T20:03:48.770Z,36.50
2023-05-08T20:06:16.395Z,34.50
2023-05-08T20:08:45.575Z,37.00
2023-05-08T20:11:12.823Z,39.75
2023-05-08T20:13:40.534Z,36.75
2023-05-08T20:16:08.529Z,28.50
2023-05-08T20:18:36.212Z,38.50
2023-05-08T20:21:03.483Z,35.00
2023-05-08T20:23:32.370Z,36.00
2023-05-08T20:25:59.676Z,33.75
2023-05-08T20:28:27.351Z,37.50
2023-05-08T20:30:54.928Z,33.50
2023-05-08T20:33:22.496Z,25.25
2023-05-08T20:35:49.581Z,23.50
2023-05-08T20:38:17.268Z,34.75
2023-05-08T20:40:44.733Z,33.25
2023-05-08T20:43:12.646Z,29.50
2023-05-08T20:45:39.875Z,30.50
2023-05-08T20:48:07.294Z,31.75
2023-05-08T20:50:34.825Z,36.25
2023-05-08T20:53:02.479Z,36.00
2023-05-08T20:55:29.651Z,41.00
2023-05-08T20:57:57.893Z,37.50
2023-05-08T21:00:25.418Z,38.00
2023-05-08T21:02:52.752Z,39.50
2023-05-08T21:05:19.829Z,39.75
2023-05-08T21:07:47.572Z,32.75
2023-05-08T21:10:15.017Z,38.00
2023-05-08T21:12:44.691Z,38.75
2023-05-08T21:15:12.091Z,24.75
2023-05-08T21:17:39.402Z,41.00
2023-05-08T21:20:07.282Z,36.00
2023-05-08T21:22:35.013Z,39.50
2023-05-08T21:25:01.926Z,39.75
2023-05-08T21:27:29.177Z,38.25
2023-05-08T21:29:59.585Z,38.75
2023-05-08T21:32:27.045Z,38.50
2023-05-08T21:34:54.250Z,41.00
2023-05-08T21:37:21.937Z,42.00
2023-05-08T21:39:49.167Z,42.50
2023-05-08T21:42:16.388Z,42.25
2023-05-08T21:44:43.660Z,41.50
2023-05-08T21:47:11.055Z,43.50
2023-05-08T21:49:37.962Z,34.25
2023-05-08T21:52:05.625Z,40.50
2023-05-08T21:54:32.555Z,37.25
2023-05-08T21:56:59.737Z,40.00
2023-05-08T21:59:26.725Z,39.50
2023-05-08T22:01:54.124Z,36.25
2023-05-08T22:04:21.183Z,42.50
2023-05-08T22:06:48.769Z,41.00
2023-05-08T22:09:15.634Z,38.25
2023-05-08T22:11:42.916Z,40.25
2023-05-08T22:14:11.799Z,37.00
2023-05-08T22:16:39.274Z,45.00
2023-05-08T22:19:06.405Z,39.50
2023-05-08T22:21:33.920Z,40.50
2023-05-08T22:24:01.045Z,39.50
2023-05-08T22:26:31.185Z,42.75
2023-05-08T22:28:59.686Z,37.75
2023-05-08T22:31:26.938Z,42.00
2023-05-08T22:33:53.883Z,40.00
2023-05-08T22:36:24.391Z,45.75
2023-05-08T22:38:51.371Z,45.25
2023-05-08T22:41:18.969Z,42.25
2023-05-08T22:43:46.525Z,39.00
2023-05-08T22:46:13.906Z,43.00
2023-05-08T22:48:40.997Z,39.75
2023-05-08T22:51:08.882Z,39.50
2023-05-08T22:53:35.993Z,41.50
2023-05-08T22:56:03.365Z,44.00
2023-05-08T22:58:30.967Z,33.50
2023-05-08T23:00:59.769Z,39.50
2023-05-08T23:03:26.778Z,43.00
2023-05-08T23:05:54.405Z,40.00
2023-05-08T23:08:22.679Z,40.25
2023-05-08T23:10:49.960Z,43.50
2023-05-08T23:13:17.421Z,37.25
2023-05-08T23:15:44.666Z,37.00
2023-05-08T23:18:11.826Z,37.25
2023-05-08T23:20:39.262Z,32.75
2023-05-08T23:23:07.284Z,38.00
2023-05-08T23:25:34.530Z,42.25
2023-05-08T23:28:01.965Z,36.00
2023-05-08T23:30:29.407Z,39.00
2023-05-08T23:32:56.487Z,42.75
2023-05-08T23:35:24.307Z,36.00
2023-05-08T23:37:51.974Z,41.00
2023-05-08T23:40:19.210Z,38.50
2023-05-08T23:42:46.412Z,38.00
2023-05-08T23:45:14.064Z,36.25
2023-05-08T23:47:41.558Z,41.25
2023-05-08T23:50:09.246Z,35.00
2023-05-08T23:52:36.402Z,37.00
2023-05-08T23:55:04.009Z,37.00
2023-05-08T23:57:31.002Z,36.75
2023-05-08T23:59:58.313Z,40.00
